createdAt,value
2023-02-19T00:01:46.591Z,70.50
2023-02-19T00:04:19.461Z,70.60
2023-02-19T00:06:47.240Z,70.40
2023-02-19T00:09:16.277Z,70.30
2023-02-19T00:11:44.073Z,70.30
2023-02-19T00:14:16.376Z,70.40
2023-02-19T00:16:43.520Z,70.40
2023-02-19T00:19:16.250Z,70.20
2023-02-19T00:21:43.846Z,70.40
2023-02-19T00:24:12.879Z,70.40
2023-02-19T00:26:41.104Z,70.10
2023-02-19T00:29:08.254Z,70.00
2023-02-19T00:31:35.925Z,69.90
2023-02-19T00:34:05.214Z,69.30
2023-02-19T00:36:36.100Z,69.30
2023-02-19T00:39:04.789Z,69.40
2023-02-19T00:41:32.192Z,69.10
2023-02-19T00:44:05.113Z,69.10
2023-02-19T00:46:52.463Z,68.80
2023-02-19T00:49:22.632Z,68.80
2023-02-19T00:51:51.866Z,68.30
2023-02-19T00:54:19.389Z,68.30
2023-02-19T00:56:46.533Z,67.90
2023-02-19T00:59:13.745Z,68.10
2023-02-19T01:01:41.643Z,67.90
2023-02-19T01:04:08.805Z,67.70
2023-02-19T01:06:36.746Z,67.90
2023-02-19T01:09:05.300Z,67.30
2023-02-19T01:11:32.478Z,66.80
2023-02-19T01:14:00.405Z,67.00
2023-02-19T01:16:27.848Z,66.70
2023-02-19T01:18:56.487Z,66.20
2023-02-19T01:21:25.883Z,66.00
2023-02-19T01:23:53.771Z,66.20
2023-02-19T01:26:22.920Z,65.90
2023-02-19T01:28:50.282Z,66.10
2023-02-19T01:31:24.897Z,66.20
2023-02-19T01:33:55.008Z,66.30
2023-02-19T01:36:22.528Z,66.20
2023-02-19T01:38:49.882Z,65.20
2023-02-19T01:41:22.710Z,65.50
2023-02-19T01:43:57.745Z,65.50
2023-02-19T01:46:38.316Z,65.50
2023-02-19T01:49:12.962Z,65.60
2023-02-19T01:51:45.493Z,65.50
2023-02-19T01:54:15.809Z,65.60
2023-02-19T01:56:45.986Z,65.60
2023-02-19T01:59:13.397Z,65.60
2023-02-19T02:01:41.660Z,65.80
2023-02-19T02:04:11.131Z,65.90
2023-02-19T02:06:46.395Z,66.00
2023-02-19T02:09:32.567Z,66.00
2023-02-19T02:11:59.706Z,66.10
2023-02-19T02:14:31.277Z,66.20
2023-02-19T02:17:08.127Z,67.00
2023-02-19T02:19:45.542Z,66.60
2023-02-19T02:22:19.741Z,66.70
2023-02-19T02:25:13.271Z,66.70
2023-02-19T02:27:56.400Z,66.90
2023-02-19T02:30:45.037Z,66.90
2023-02-19T02:33:19.802Z,66.90
2023-02-19T02:36:14.152Z,67.00
2023-02-19T02:38:44.172Z,66.90
2023-02-19T02:41:13.444Z,67.20
2023-02-19T02:43:40.591Z,67.30
2023-02-19T02:46:12.169Z,67.30
2023-02-19T02:48:58.344Z,67.40
2023-02-19T02:51:26.922Z,68.40
2023-02-19T02:54:17.475Z,67.70
2023-02-19T02:56:46.731Z,67.80
2023-02-19T02:59:18.612Z,67.60
2023-02-19T03:02:10.103Z,67.80
2023-02-19T03:05:10.792Z,67.90
2023-02-19T03:07:43.984Z,68.10
2023-02-19T03:10:17.240Z,68.00
2023-02-19T03:13:05.053Z,67.90
2023-02-19T03:15:58.700Z,68.40
2023-02-19T03:18:47.851Z,68.70
2023-02-19T03:21:17.305Z,69.10
2023-02-19T03:24:04.606Z,69.80
2023-02-19T03:26:33.903Z,70.70
2023-02-19T03:29:22.176Z,72.20
2023-02-19T03:32:18.383Z,71.60
2023-02-19T03:34:51.194Z,72.70
2023-02-19T03:37:32.565Z,71.30
2023-02-19T03:39:59.896Z,71.70
2023-02-19T03:42:36.734Z,72.50
2023-02-19T03:45:18.909Z,72.70
2023-02-19T03:47:50.903Z,72.90
2023-02-19T03:50:48.249Z,73.20
2023-02-19T03:53:29.982Z,73.00
2023-02-19T03:56:24.871Z,72.70
2023-02-19T03:58:57.845Z,73.00
2023-02-19T04:01:46.759Z,73.50
2023-02-19T04:04:27.308Z,74.00
2023-02-19T04:06:57.121Z,73.50
2023-02-19T04:09:27.694Z,73.30
2023-02-19T04:11:55.454Z,73.80
2023-02-19T04:14:33.039Z,74.60
2023-02-19T04:17:04.219Z,74.00
2023-02-19T04:19:34.238Z,74.50
2023-02-19T04:22:02.419Z,74.90
2023-02-19T04:24:37.332Z,74.40
2023-02-19T04:27:05.855Z,74.60
2023-02-19T04:29:33.056Z,75.00
2023-02-19T04:32:00.309Z,76.00
2023-02-19T04:34:27.500Z,75.30
2023-02-19T04:36:54.654Z,75.30
2023-02-19T04:39:21.902Z,75.60
2023-02-19T04:41:48.993Z,75.20
2023-02-19T04:44:16.125Z,76.30
2023-02-19T04:46:43.311Z,76.40
2023-02-19T04:49:10.884Z,75.70
2023-02-19T04:51:38.715Z,75.60
2023-02-19T04:54:05.892Z,76.00
2023-02-19T04:56:33.022Z,75.80
2023-02-19T04:59:00.204Z,76.10
2023-02-19T05:01:27.316Z,76.10
2023-02-19T05:03:54.392Z,76.20
2023-02-19T05:06:21.527Z,76.40
2023-02-19T05:08:48.829Z,76.60
2023-02-19T05:11:15.990Z,76.20
2023-02-19T05:13:43.136Z,76.00
2023-02-19T05:16:13.978Z,76.90
2023-02-19T05:18:41.444Z,76.30
2023-02-19T05:21:09.785Z,76.30
2023-02-19T05:23:37.636Z,76.30
2023-02-19T05:26:10.193Z,76.30
2023-02-19T05:28:37.333Z,76.30
2023-02-19T05:31:09.556Z,76.00
2023-02-19T05:33:38.091Z,76.10
2023-02-19T05:36:08.837Z,76.30
2023-02-19T05:38:36.595Z,76.50
2023-02-19T05:41:17.769Z,76.70
2023-02-19T05:43:46.549Z,76.30
2023-02-19T05:46:16.890Z,76.40
2023-02-19T05:48:44.096Z,76.50
2023-02-19T05:51:13.846Z,76.70
2023-02-19T05:53:41.995Z,76.40
2023-02-19T05:56:23.954Z,76.70
2023-02-19T05:58:51.050Z,76.90
2023-02-19T06:01:20.510Z,77.00
2023-02-19T06:03:47.907Z,78.50
2023-02-19T06:06:16.445Z,78.90
2023-02-19T06:08:43.820Z,78.70
2023-02-19T06:11:11.403Z,79.20
2023-02-19T06:13:38.732Z,78.70
2023-02-19T06:16:07.826Z,78.90
2023-02-19T06:18:35.541Z,79.50
2023-02-19T06:21:07.162Z,79.60
2023-02-19T06:23:34.775Z,79.40
2023-02-19T06:26:07.688Z,79.80
2023-02-19T06:28:35.382Z,79.50
2023-02-19T06:31:02.656Z,80.60
2023-02-19T06:33:30.315Z,81.20
2023-02-19T06:36:02.872Z,81.10
2023-02-19T06:38:30.860Z,82.30
2023-02-19T06:41:02.443Z,82.30
2023-02-19T06:43:29.784Z,83.20
2023-02-19T06:45:59.915Z,82.30
2023-02-19T06:48:28.031Z,82.70
2023-02-19T06:50:55.465Z,82.40
2023-02-19T06:53:22.988Z,82.70
2023-02-19T06:56:01.049Z,83.40
2023-02-19T06:58:28.495Z,83.30
2023-02-19T07:00:55.817Z,83.00
2023-02-19T07:03:23.363Z,83.30
2023-02-19T07:05:50.458Z,83.70
2023-02-19T07:08:17.737Z,83.70
2023-02-19T07:10:45.809Z,83.40
2023-02-19T07:13:12.917Z,84.00
2023-02-19T07:15:40.049Z,83.80
2023-02-19T07:18:10.378Z,83.50
2023-02-19T07:20:38.054Z,83.90
2023-02-19T07:23:05.185Z,83.70
2023-02-19T07:25:32.283Z,83.80
2023-02-19T07:27:59.389Z,84.30
2023-02-19T07:30:26.581Z,84.50
2023-02-19T07:32:53.760Z,84.90
2023-02-19T07:35:20.887Z,84.50
2023-02-19T07:37:48.105Z,84.30
2023-02-19T07:40:15.237Z,84.00
2023-02-19T07:42:42.368Z,84.10
2023-02-19T07:45:09.605Z,84.20
2023-02-19T07:47:36.833Z,84.10
2023-02-19T07:50:04.206Z,83.80
2023-02-19T07:52:31.458Z,83.70
2023-02-19T07:54:58.599Z,83.70
2023-02-19T07:57:28.273Z,83.20
2023-02-19T07:59:55.617Z,82.80
2023-02-19T08:02:41.588Z,82.30
2023-02-19T08:05:08.956Z,82.30
2023-02-19T08:07:36.755Z,81.90
2023-02-19T08:10:23.393Z,80.40
2023-02-19T08:13:16.922Z,81.10
2023-02-19T08:15:44.622Z,81.20
2023-02-19T08:18:12.345Z,80.60
2023-02-19T08:20:39.667Z,80.70
2023-02-19T08:23:07.329Z,79.60
2023-02-19T08:25:35.207Z,79.60
2023-02-19T08:28:02.432Z,77.70
2023-02-19T08:30:30.572Z,78.20
2023-02-19T08:33:02.039Z,77.30
2023-02-19T08:35:29.638Z,77.10
2023-02-19T08:37:58.256Z,76.30
2023-02-19T08:40:26.372Z,76.20
2023-02-19T08:42:53.920Z,76.70
2023-02-19T08:45:21.410Z,77.10
2023-02-19T08:47:48.641Z,76.70
2023-02-19T08:50:15.884Z,75.30
2023-02-19T08:52:42.967Z,75.20
2023-02-19T08:55:10.158Z,75.50
2023-02-19T08:57:37.754Z,74.10
2023-02-19T09:00:06.796Z,74.40
2023-02-19T09:02:33.968Z,75.10
2023-02-19T09:05:01.700Z,75.00
2023-02-19T09:07:28.839Z,74.90
2023-02-19T09:09:55.924Z,75.10
2023-02-19T09:12:23.176Z,75.30
2023-02-19T09:14:50.463Z,74.30
2023-02-19T09:17:17.684Z,74.70
2023-02-19T09:19:44.800Z,72.40
2023-02-19T09:22:11.957Z,73.00
2023-02-19T09:24:39.129Z,71.70
2023-02-19T09:27:06.250Z,71.20
2023-02-19T09:29:34.589Z,72.00
2023-02-19T09:32:01.937Z,71.20
2023-02-19T09:34:29.337Z,71.20
2023-02-19T09:36:56.440Z,69.90
2023-02-19T09:39:23.527Z,69.50
2023-02-19T09:42:01.292Z,68.70
2023-02-19T09:44:35.358Z,70.20
2023-02-19T09:47:05.903Z,69.30
2023-02-19T09:49:41.876Z,68.00
2023-02-19T09:52:23.982Z,68.20
2023-02-19T09:54:57.679Z,69.20
2023-02-19T09:57:28.435Z,68.70
2023-02-19T10:00:19.851Z,68.10
2023-02-19T10:02:47.045Z,67.60
2023-02-19T10:05:16.322Z,68.00
2023-02-19T10:07:46.810Z,67.70
2023-02-19T10:10:13.903Z,67.30
2023-02-19T10:12:47.799Z,66.50
2023-02-19T10:15:27.582Z,66.70
2023-02-19T10:17:54.854Z,66.00
2023-02-19T10:20:26.669Z,65.80
2023-02-19T10:23:08.891Z,64.60
2023-02-19T10:25:43.040Z,64.20
2023-02-19T10:28:15.097Z,63.60
2023-02-19T10:30:43.050Z,64.10
2023-02-19T10:33:13.159Z,64.00
2023-02-19T10:35:56.478Z,64.60
2023-02-19T10:38:39.098Z,64.40
2023-02-19T10:41:07.590Z,64.60
2023-02-19T10:43:42.252Z,64.40
2023-02-19T10:46:18.429Z,63.30
2023-02-19T10:48:52.034Z,62.40
2023-02-19T10:51:21.834Z,61.50
2023-02-19T10:53:52.063Z,61.10
2023-02-19T10:56:27.270Z,60.90
2023-02-19T10:58:55.193Z,61.30
2023-02-19T11:01:29.326Z,61.60
2023-02-19T11:04:18.546Z,60.40
2023-02-19T11:06:46.589Z,58.70
2023-02-19T11:09:45.477Z,57.80
2023-02-19T11:12:25.788Z,57.60
2023-02-19T11:14:52.997Z,56.80
2023-02-19T11:17:30.606Z,56.10
2023-02-19T11:20:07.992Z,55.50
2023-02-19T11:22:43.034Z,56.30
2023-02-19T11:25:10.125Z,55.40
2023-02-19T11:27:54.306Z,55.30
2023-02-19T11:30:42.645Z,54.70
2023-02-19T11:33:24.864Z,54.30
2023-02-19T11:35:57.720Z,53.50
2023-02-19T11:38:24.830Z,53.80
2023-02-19T11:41:03.459Z,54.30
2023-02-19T11:43:30.511Z,53.00
2023-02-19T11:46:12.999Z,52.90
2023-02-19T11:48:55.481Z,51.30
2023-02-19T11:51:30.296Z,52.60
2023-02-19T11:54:42.970Z,50.90
2023-02-19T11:57:19.265Z,51.50
2023-02-19T11:59:53.765Z,50.00
2023-02-19T12:02:47.454Z,49.80
2023-02-19T12:05:26.891Z,49.20
2023-02-19T12:08:10.366Z,48.20
2023-02-19T12:10:46.150Z,47.90
2023-02-19T12:13:25.773Z,48.60
2023-02-19T12:15:57.828Z,48.10
2023-02-19T12:18:36.850Z,48.80
2023-02-19T12:21:21.224Z,48.60
2023-02-19T12:24:25.989Z,48.90
2023-02-19T12:27:23.017Z,49.60
2023-02-19T12:30:17.740Z,52.00
2023-02-19T12:32:49.772Z,52.60
2023-02-19T12:35:38.519Z,52.90
2023-02-19T12:38:40.711Z,52.40
2023-02-19T12:41:25.913Z,53.30
2023-02-19T12:44:01.592Z,53.40
2023-02-19T12:46:35.002Z,53.90
2023-02-19T12:49:11.073Z,54.70
2023-02-19T12:51:49.120Z,54.70
2023-02-19T12:54:28.091Z,55.30
2023-02-19T12:57:18.291Z,55.30
2023-02-19T13:00:00.245Z,55.30
2023-02-19T13:02:50.299Z,55.40
2023-02-19T13:05:31.978Z,55.70
2023-02-19T13:08:12.423Z,56.40
2023-02-19T13:10:44.719Z,56.60
2023-02-19T13:13:26.765Z,56.80
2023-02-19T13:15:59.059Z,57.90
2023-02-19T13:18:35.741Z,58.30
2023-02-19T13:21:04.057Z,59.00
2023-02-19T13:23:55.984Z,59.60
2023-02-19T13:26:38.208Z,59.40
2023-02-19T13:29:51.407Z,59.40
2023-02-19T13:32:42.335Z,59.50
2023-02-19T13:35:15.561Z,59.10
2023-02-19T13:37:43.324Z,59.30
2023-02-19T13:40:25.511Z,59.20
2023-02-19T13:42:55.561Z,59.20
2023-02-19T13:45:34.180Z,59.30
2023-02-19T13:48:14.518Z,59.60
2023-02-19T13:50:42.000Z,59.90
2023-02-19T13:53:51.643Z,60.00
2023-02-19T13:56:31.456Z,59.30
2023-02-19T13:59:32.318Z,59.30
2023-02-19T14:02:00.699Z,59.50
2023-02-19T14:04:51.843Z,60.10
2023-02-19T14:07:18.988Z,61.10
2023-02-19T14:09:47.119Z,61.80
2023-02-19T14:12:15.913Z,62.50
2023-02-19T14:14:51.652Z,64.40
2023-02-19T14:17:42.108Z,64.10
2023-02-19T14:20:09.177Z,65.60
2023-02-19T14:23:03.435Z,66.30
2023-02-19T14:25:58.406Z,67.00
2023-02-19T14:28:43.370Z,68.60
2023-02-19T14:31:34.022Z,69.20
2023-02-19T14:34:06.679Z,68.60
2023-02-19T14:36:52.781Z,69.60
2023-02-19T14:39:24.625Z,69.20
2023-02-19T14:41:54.967Z,69.40
2023-02-19T14:44:25.829Z,70.30
2023-02-19T14:47:09.571Z,70.00
2023-02-19T14:49:47.648Z,72.20
2023-02-19T14:52:20.648Z,71.40
2023-02-19T14:54:59.841Z,71.90
2023-02-19T14:57:35.797Z,72.20
2023-02-19T15:00:21.673Z,71.90
2023-02-19T15:02:55.666Z,71.90
2023-02-19T15:05:25.795Z,71.40
2023-02-19T15:07:56.039Z,71.60
2023-02-19T15:10:23.707Z,71.80
2023-02-19T15:12:56.898Z,71.30
2023-02-19T15:15:29.783Z,72.30
2023-02-19T15:18:01.002Z,72.10
2023-02-19T15:20:37.080Z,72.40
2023-02-19T15:23:07.903Z,72.20
2023-02-19T15:25:38.069Z,72.10
2023-02-19T15:28:40.847Z,71.50
2023-02-19T15:31:14.937Z,71.30
2023-02-19T15:33:50.423Z,70.50
2023-02-19T15:36:24.084Z,70.50
2023-02-19T15:38:56.913Z,70.50
2023-02-19T15:41:28.516Z,70.40
2023-02-19T15:44:06.837Z,70.10
2023-02-19T15:46:36.027Z,69.90
2023-02-19T15:49:05.086Z,69.90
2023-02-19T15:51:41.026Z,69.60
2023-02-19T15:54:52.873Z,68.70
2023-02-19T15:57:25.888Z,70.10
2023-02-19T16:00:02.027Z,70.80
2023-02-19T16:02:29.547Z,70.90
2023-02-19T16:04:57.474Z,72.20
2023-02-19T16:07:32.088Z,72.80
2023-02-19T16:10:17.942Z,73.70
2023-02-19T16:12:55.318Z,74.40
2023-02-19T16:15:22.472Z,75.40
2023-02-19T16:17:49.821Z,75.50
2023-02-19T16:20:24.151Z,76.00
2023-02-19T16:22:52.316Z,78.70
2023-02-19T16:25:42.259Z,78.60
2023-02-19T16:28:18.240Z,79.30
2023-02-19T16:30:45.613Z,80.00
2023-02-19T16:33:27.911Z,80.40
2023-02-19T16:35:55.008Z,80.10
2023-02-19T16:38:22.111Z,81.10
2023-02-19T16:40:49.218Z,80.60
2023-02-19T16:43:17.115Z,80.70
2023-02-19T16:45:45.340Z,81.00
2023-02-19T16:48:13.251Z,80.60
2023-02-19T16:50:41.571Z,80.20
2023-02-19T16:53:19.428Z,80.50
2023-02-19T16:55:47.483Z,80.90
2023-02-19T16:58:14.683Z,81.40
2023-02-19T17:00:42.162Z,82.60
2023-02-19T17:03:13.174Z,82.40
2023-02-19T17:05:40.809Z,82.30
2023-02-19T17:08:34.233Z,82.30
2023-02-19T17:11:04.390Z,84.00
2023-02-19T17:13:31.628Z,84.30
2023-02-19T17:15:59.317Z,84.50
2023-02-19T17:18:26.660Z,84.40
2023-02-19T17:21:13.112Z,84.90
2023-02-19T17:23:40.372Z,85.30
2023-02-19T17:26:13.896Z,85.10
2023-02-19T17:28:41.524Z,85.50
2023-02-19T17:31:11.382Z,85.10
2023-02-19T17:33:39.000Z,84.50
2023-02-19T17:36:07.213Z,85.20
2023-02-19T17:38:34.412Z,84.90
2023-02-19T17:41:01.515Z,85.80
2023-02-19T17:43:28.582Z,85.80
2023-02-19T17:45:55.711Z,86.10
2023-02-19T17:48:22.872Z,85.70
2023-02-19T17:50:52.154Z,85.70
2023-02-19T17:53:19.254Z,85.60
2023-02-19T17:55:46.422Z,85.50
2023-02-19T17:58:14.361Z,85.60
2023-02-19T18:00:41.543Z,85.30
2023-02-19T18:03:08.753Z,85.20
2023-02-19T18:05:35.885Z,85.40
2023-02-19T18:08:03.039Z,85.50
2023-02-19T18:10:30.592Z,84.90
2023-02-19T18:12:57.671Z,84.60
2023-02-19T18:15:29.183Z,84.70
2023-02-19T18:17:57.167Z,84.70
2023-02-19T18:20:28.764Z,84.50
2023-02-19T18:22:56.604Z,84.30
2023-02-19T18:25:24.234Z,84.20
2023-02-19T18:27:51.368Z,84.10
2023-02-19T18:30:20.913Z,84.00
2023-02-19T18:32:49.391Z,84.00
2023-02-19T18:35:18.879Z,84.30
2023-02-19T18:37:49.099Z,84.00
2023-02-19T18:40:16.186Z,84.10
2023-02-19T18:42:43.332Z,84.20
2023-02-19T18:45:10.494Z,84.30
2023-02-19T18:47:37.766Z,83.90
2023-02-19T18:50:08.297Z,83.90
2023-02-19T18:52:35.419Z,83.40
2023-02-19T18:55:02.623Z,83.20
2023-02-19T18:57:29.732Z,83.00
2023-02-19T18:59:56.900Z,82.80
2023-02-19T19:02:24.120Z,81.90
2023-02-19T19:04:54.207Z,81.10
2023-02-19T19:07:21.601Z,81.80
2023-02-19T19:09:49.064Z,80.50
2023-02-19T19:12:19.064Z,79.20
2023-02-19T19:14:46.330Z,79.80
2023-02-19T19:17:13.477Z,79.10
2023-02-19T19:19:43.428Z,77.00
2023-02-19T19:22:10.622Z,76.70
2023-02-19T19:24:37.737Z,76.70
2023-02-19T19:27:04.936Z,76.30
2023-02-19T19:29:32.334Z,75.70
2023-02-19T19:31:59.589Z,74.30
2023-02-19T19:34:26.808Z,73.20
2023-02-19T19:36:53.979Z,73.20
2023-02-19T19:39:21.064Z,72.80
2023-02-19T19:41:54.016Z,71.50
2023-02-19T19:44:23.837Z,72.00
2023-02-19T19:46:51.034Z,71.80
2023-02-19T19:49:22.462Z,71.30
2023-02-19T19:51:49.660Z,71.60
2023-02-19T19:54:16.809Z,71.90
2023-02-19T19:56:46.281Z,71.40
2023-02-19T19:59:15.730Z,71.00
2023-02-19T20:01:54.044Z,70.60
2023-02-19T20:04:22.469Z,70.40
2023-02-19T20:06:50.176Z,70.60
2023-02-19T20:09:18.378Z,69.20
2023-02-19T20:11:50.899Z,69.30
2023-02-19T20:14:19.906Z,69.50
2023-02-19T20:16:47.692Z,68.80
2023-02-19T20:19:15.888Z,68.80
2023-02-19T20:21:48.179Z,69.20
2023-02-19T20:24:24.053Z,69.40
2023-02-19T20:26:53.713Z,69.40
2023-02-19T20:29:21.131Z,69.30
2023-02-19T20:31:50.046Z,69.20
2023-02-19T20:34:18.088Z,69.60
2023-02-19T20:36:47.049Z,69.70
2023-02-19T20:39:16.848Z,69.50
2023-02-19T20:41:49.117Z,70.10
2023-02-19T20:44:17.995Z,69.90
2023-02-19T20:46:47.261Z,69.90
2023-02-19T20:49:16.708Z,70.10
2023-02-19T20:51:51.990Z,70.10
2023-02-19T20:54:21.430Z,70.00
2023-02-19T20:56:51.174Z,70.00
2023-02-19T20:59:19.407Z,70.10
2023-02-19T21:01:46.996Z,70.10
2023-02-19T21:04:14.419Z,69.80
2023-02-19T21:06:41.669Z,69.90
2023-02-19T21:09:08.755Z,69.90
2023-02-19T21:11:36.070Z,69.70
2023-02-19T21:14:03.700Z,69.50
2023-02-19T21:16:32.394Z,69.70
2023-02-19T21:18:59.679Z,69.50
2023-02-19T21:21:27.521Z,69.50
2023-02-19T21:23:56.241Z,69.70
2023-02-19T21:26:23.789Z,69.70
2023-02-19T21:28:54.171Z,69.50
2023-02-19T21:31:22.845Z,69.50
2023-02-19T21:33:51.608Z,69.40
2023-02-19T21:36:18.855Z,69.60
2023-02-19T21:38:46.621Z,69.50
2023-02-19T21:41:13.810Z,68.60
2023-02-19T21:43:40.888Z,69.20
2023-02-19T21:46:08.081Z,69.40
2023-02-19T21:48:35.156Z,69.00
2023-02-19T21:51:03.833Z,69.30
2023-02-19T21:53:30.897Z,69.40
2023-02-19T21:55:59.156Z,69.30
2023-02-19T21:58:26.665Z,69.50
2023-02-19T22:00:54.180Z,69.50
2023-02-19T22:03:21.530Z,69.20
2023-02-19T22:05:48.583Z,69.50
2023-02-19T22:08:17.527Z,69.40
2023-02-19T22:10:44.693Z,69.20
2023-02-19T22:13:11.832Z,68.70
2023-02-19T22:15:39.168Z,68.30
2023-02-19T22:18:06.318Z,67.90
2023-02-19T22:20:34.744Z,67.90
2023-02-19T22:23:01.922Z,67.00
2023-02-19T22:25:29.095Z,66.80
2023-02-19T22:27:56.212Z,65.80
2023-02-19T22:30:23.333Z,66.20
2023-02-19T22:32:50.633Z,65.20
2023-02-19T22:35:17.957Z,65.00
2023-02-19T22:37:45.082Z,65.10
2023-02-19T22:40:12.709Z,65.30
2023-02-19T22:42:39.840Z,65.10
2023-02-19T22:45:07.427Z,65.30
2023-02-19T22:47:34.544Z,65.50
2023-02-19T22:50:01.798Z,65.40
2023-02-19T22:52:28.974Z,65.40
2023-02-19T22:54:56.234Z,65.50
2023-02-19T22:57:23.447Z,65.80
2023-02-19T22:59:50.732Z,66.00
2023-02-19T23:02:17.965Z,65.90
2023-02-19T23:04:45.025Z,66.30
2023-02-19T23:07:12.142Z,66.40
2023-02-19T23:09:39.348Z,66.40
2023-02-19T23:12:10.295Z,66.40
2023-02-19T23:14:37.984Z,66.10
2023-02-19T23:17:05.335Z,66.20
2023-02-19T23:19:32.696Z,66.10
2023-02-19T23:22:00.121Z,65.00
2023-02-19T23:24:27.292Z,65.50
2023-02-19T23:26:54.886Z,64.90
2023-02-19T23:29:25.394Z,65.50
2023-02-19T23:31:53.575Z,65.00
2023-02-19T23:34:21.003Z,65.10
2023-02-19T23:36:50.410Z,65.00
2023-02-19T23:39:20.236Z,65.00
2023-02-19T23:41:52.187Z,65.50
2023-02-19T23:44:20.117Z,66.00
2023-02-19T23:46:48.058Z,64.20
2023-02-19T23:49:15.227Z,64.00
2023-02-19T23:51:42.347Z,64.30
2023-02-19T23:54:09.806Z,64.10
2023-02-19T23:56:36.899Z,64.00
2023-02-19T23:59:04.378Z,63.60
